sensor_id;sensor_type;location;lat;lon;timestamp;P1;durP1;ratioP1;P2;durP2;ratioP2
80423;SDS011;69765;47.668;19.326;2023-05-19T00:00:44;9.13;;;6.60;;
80423;SDS011;69765;47.668;19.326;2023-05-19T00:03:51;9.77;;;6.05;;
80423;SDS011;69765;47.668;19.326;2023-05-19T00:06:55;8.88;;;5.90;;
80423;SDS011;69765;47.668;19.326;2023-05-19T00:10:00;8.77;;;5.30;;
80423;SDS011;69765;47.668;19.326;2023-05-19T00:13:03;9.35;;;5.53;;
80423;SDS011;69765;47.668;19.326;2023-05-19T00:16:06;8.18;;;6.13;;
80423;SDS011;69765;47.668;19.326;2023-05-19T00:19:09;7.40;;;4.90;;
80423;SDS011;69765;47.668;19.326;2023-05-19T00:22:13;7.43;;;5.13;;
80423;SDS011;69765;47.668;19.326;2023-05-19T00:25:16;7.55;;;4.80;;
80423;SDS011;69765;47.668;19.326;2023-05-19T00:28:19;7.60;;;5.15;;
80423;SDS011;69765;47.668;19.326;2023-05-19T00:31:21;9.07;;;5.80;;
80423;SDS011;69765;47.668;19.326;2023-05-19T00:34:24;11.25;;;5.32;;
80423;SDS011;69765;47.668;19.326;2023-05-19T00:37:26;8.88;;;5.53;;
80423;SDS011;69765;47.668;19.326;2023-05-19T00:40:29;10.93;;;5.63;;
80423;SDS011;69765;47.668;19.326;2023-05-19T00:43:33;9.68;;;5.88;;
80423;SDS011;69765;47.668;19.326;2023-05-19T00:46:36;10.02;;;5.55;;
80423;SDS011;69765;47.668;19.326;2023-05-19T00:49:39;9.18;;;5.55;;
80423;SDS011;69765;47.668;19.326;2023-05-19T00:52:42;10.32;;;5.97;;
80423;SDS011;69765;47.668;19.326;2023-05-19T00:55:44;11.30;;;6.80;;
80423;SDS011;69765;47.668;19.326;2023-05-19T00:58:52;12.25;;;5.93;;
80423;SDS011;69765;47.668;19.326;2023-05-19T01:01:56;12.50;;;5.75;;
80423;SDS011;69765;47.668;19.326;2023-05-19T01:04:59;11.70;;;6.50;;
80423;SDS011;69765;47.668;19.326;2023-05-19T01:08:03;12.13;;;7.15;;
80423;SDS011;69765;47.668;19.326;2023-05-19T01:11:07;18.38;;;9.55;;
80423;SDS011;69765;47.668;19.326;2023-05-19T01:14:09;11.73;;;7.70;;
80423;SDS011;69765;47.668;19.326;2023-05-19T01:17:20;10.95;;;6.43;;
80423;SDS011;69765;47.668;19.326;2023-05-19T01:20:33;9.63;;;5.75;;
80423;SDS011;69765;47.668;19.326;2023-05-19T01:23:51;9.05;;;5.53;;
80423;SDS011;69765;47.668;19.326;2023-05-19T01:33:33;8.70;;;5.40;;
80423;SDS011;69765;47.668;19.326;2023-05-19T01:36:37;9.20;;;5.43;;
80423;SDS011;69765;47.668;19.326;2023-05-19T01:39:43;11.32;;;5.90;;
80423;SDS011;69765;47.668;19.326;2023-05-19T01:42:46;8.55;;;5.63;;
80423;SDS011;69765;47.668;19.326;2023-05-19T01:45:50;8.80;;;6.05;;
80423;SDS011;69765;47.668;19.326;2023-05-19T01:48:55;12.88;;;6.72;;
80423;SDS011;69765;47.668;19.326;2023-05-19T01:51:58;10.57;;;6.07;;
80423;SDS011;69765;47.668;19.326;2023-05-19T01:55:01;11.20;;;6.28;;
80423;SDS011;69765;47.668;19.326;2023-05-19T02:07:49;10.80;;;6.72;;
80423;SDS011;69765;47.668;19.326;2023-05-19T02:11:04;11.63;;;6.72;;
80423;SDS011;69765;47.668;19.326;2023-05-19T02:14:17;13.27;;;7.40;;
80423;SDS011;69765;47.668;19.326;2023-05-19T02:17:22;11.48;;;7.13;;
80423;SDS011;69765;47.668;19.326;2023-05-19T02:20:29;12.27;;;7.25;;
80423;SDS011;69765;47.668;19.326;2023-05-19T02:23:32;12.57;;;6.75;;
80423;SDS011;69765;47.668;19.326;2023-05-19T02:26:35;12.05;;;6.10;;
80423;SDS011;69765;47.668;19.326;2023-05-19T02:29:38;13.23;;;7.13;;
80423;SDS011;69765;47.668;19.326;2023-05-19T02:32:40;12.38;;;6.65;;
80423;SDS011;69765;47.668;19.326;2023-05-19T02:35:43;13.38;;;7.07;;
80423;SDS011;69765;47.668;19.326;2023-05-19T02:38:46;10.40;;;6.97;;
80423;SDS011;69765;47.668;19.326;2023-05-19T02:41:49;17.85;;;7.13;;
80423;SDS011;69765;47.668;19.326;2023-05-19T02:44:53;12.65;;;7.47;;
80423;SDS011;69765;47.668;19.326;2023-05-19T02:47:55;12.85;;;7.70;;
80423;SDS011;69765;47.668;19.326;2023-05-19T02:50:59;11.93;;;7.07;;
80423;SDS011;69765;47.668;19.326;2023-05-19T02:54:02;13.02;;;7.68;;
80423;SDS011;69765;47.668;19.326;2023-05-19T02:57:05;14.93;;;7.45;;
80423;SDS011;69765;47.668;19.326;2023-05-19T03:00:08;12.95;;;6.68;;
80423;SDS011;69765;47.668;19.326;2023-05-19T03:03:11;13.52;;;8.57;;
80423;SDS011;69765;47.668;19.326;2023-05-19T03:06:15;12.98;;;7.53;;
80423;SDS011;69765;47.668;19.326;2023-05-19T03:09:19;14.13;;;8.00;;
80423;SDS011;69765;47.668;19.326;2023-05-19T03:12:21;12.10;;;7.15;;
80423;SDS011;69765;47.668;19.326;2023-05-19T03:15:24;13.23;;;7.53;;
80423;SDS011;69765;47.668;19.326;2023-05-19T03:18:26;13.18;;;7.35;;
80423;SDS011;69765;47.668;19.326;2023-05-19T03:21:29;14.70;;;7.68;;
80423;SDS011;69765;47.668;19.326;2023-05-19T03:24:33;12.15;;;7.32;;
80423;SDS011;69765;47.668;19.326;2023-05-19T03:27:36;17.15;;;10.02;;
80423;SDS011;69765;47.668;19.326;2023-05-19T03:30:40;14.02;;;8.38;;
80423;SDS011;69765;47.668;19.326;2023-05-19T03:33:47;13.63;;;7.90;;
80423;SDS011;69765;47.668;19.326;2023-05-19T03:36:49;12.13;;;7.15;;
80423;SDS011;69765;47.668;19.326;2023-05-19T03:39:52;13.00;;;7.20;;
80423;SDS011;69765;47.668;19.326;2023-05-19T03:42:55;15.13;;;8.50;;
80423;SDS011;69765;47.668;19.326;2023-05-19T03:45:57;13.98;;;7.22;;
80423;SDS011;69765;47.668;19.326;2023-05-19T03:49:18;15.25;;;8.32;;
80423;SDS011;69765;47.668;19.326;2023-05-19T03:52:40;11.43;;;6.50;;
80423;SDS011;69765;47.668;19.326;2023-05-19T03:55:57;12.23;;;7.65;;
80423;SDS011;69765;47.668;19.326;2023-05-19T03:59:01;13.55;;;8.00;;
80423;SDS011;69765;47.668;19.326;2023-05-19T04:02:07;14.63;;;8.27;;
80423;SDS011;69765;47.668;19.326;2023-05-19T04:05:09;18.30;;;8.98;;
80423;SDS011;69765;47.668;19.326;2023-05-19T04:08:12;14.00;;;7.47;;
80423;SDS011;69765;47.668;19.326;2023-05-19T04:11:14;17.17;;;8.45;;
80423;SDS011;69765;47.668;19.326;2023-05-19T04:14:17;13.60;;;8.75;;
80423;SDS011;69765;47.668;19.326;2023-05-19T04:17:21;15.30;;;7.80;;
80423;SDS011;69765;47.668;19.326;2023-05-19T04:20:28;14.25;;;8.25;;
80423;SDS011;69765;47.668;19.326;2023-05-19T04:23:31;17.35;;;9.35;;
80423;SDS011;69765;47.668;19.326;2023-05-19T04:26:34;15.35;;;8.18;;
80423;SDS011;69765;47.668;19.326;2023-05-19T04:29:41;18.40;;;10.48;;
80423;SDS011;69765;47.668;19.326;2023-05-19T04:32:44;16.20;;;9.52;;
80423;SDS011;69765;47.668;19.326;2023-05-19T04:35:47;16.27;;;8.20;;
80423;SDS011;69765;47.668;19.326;2023-05-19T04:38:52;13.80;;;8.43;;
80423;SDS011;69765;47.668;19.326;2023-05-19T04:42:04;15.90;;;8.35;;
80423;SDS011;69765;47.668;19.326;2023-05-19T04:45:08;14.82;;;7.53;;
80423;SDS011;69765;47.668;19.326;2023-05-19T04:48:15;13.80;;;7.60;;
80423;SDS011;69765;47.668;19.326;2023-05-19T04:51:19;19.88;;;8.52;;
80423;SDS011;69765;47.668;19.326;2023-05-19T04:54:22;14.10;;;7.32;;
80423;SDS011;69765;47.668;19.326;2023-05-19T04:57:25;12.10;;;7.07;;
80423;SDS011;69765;47.668;19.326;2023-05-19T05:00:28;12.70;;;7.35;;
80423;SDS011;69765;47.668;19.326;2023-05-19T05:03:36;11.73;;;7.20;;
80423;SDS011;69765;47.668;19.326;2023-05-19T05:06:39;11.82;;;7.47;;
80423;SDS011;69765;47.668;19.326;2023-05-19T05:09:44;9.32;;;5.82;;
80423;SDS011;69765;47.668;19.326;2023-05-19T05:12:46;9.52;;;5.18;;
80423;SDS011;69765;47.668;19.326;2023-05-19T05:15:50;9.55;;;6.43;;
80423;SDS011;69765;47.668;19.326;2023-05-19T05:18:54;12.13;;;6.18;;
80423;SDS011;69765;47.668;19.326;2023-05-19T05:21:58;10.20;;;6.40;;
80423;SDS011;69765;47.668;19.326;2023-05-19T05:25:02;8.32;;;5.88;;
80423;SDS011;69765;47.668;19.326;2023-05-19T05:28:05;10.50;;;6.85;;
80423;SDS011;69765;47.668;19.326;2023-05-19T05:31:10;8.30;;;5.28;;
80423;SDS011;69765;47.668;19.326;2023-05-19T05:34:13;8.82;;;5.65;;
80423;SDS011;69765;47.668;19.326;2023-05-19T05:37:17;9.32;;;5.63;;
80423;SDS011;69765;47.668;19.326;2023-05-19T05:40:20;8.32;;;5.18;;
80423;SDS011;69765;47.668;19.326;2023-05-19T05:43:22;7.35;;;5.13;;
80423;SDS011;69765;47.668;19.326;2023-05-19T05:46:31;6.82;;;4.22;;
80423;SDS011;69765;47.668;19.326;2023-05-19T05:49:34;8.60;;;6.40;;
80423;SDS011;69765;47.668;19.326;2023-05-19T05:52:39;11.23;;;6.20;;
80423;SDS011;69765;47.668;19.326;2023-05-19T05:55:44;8.25;;;5.45;;
80423;SDS011;69765;47.668;19.326;2023-05-19T05:58:48;7.57;;;4.53;;
80423;SDS011;69765;47.668;19.326;2023-05-19T06:01:51;6.90;;;4.85;;
80423;SDS011;69765;47.668;19.326;2023-05-19T06:04:55;6.13;;;4.55;;
80423;SDS011;69765;47.668;19.326;2023-05-19T06:07:58;7.97;;;4.97;;
80423;SDS011;69765;47.668;19.326;2023-05-19T06:11:01;5.50;;;3.85;;
80423;SDS011;69765;47.668;19.326;2023-05-19T06:14:12;7.97;;;5.47;;
80423;SDS011;69765;47.668;19.326;2023-05-19T06:17:46;6.32;;;4.95;;
80423;SDS011;69765;47.668;19.326;2023-05-19T06:20:48;7.80;;;4.50;;
80423;SDS011;69765;47.668;19.326;2023-05-19T06:23:51;12.20;;;5.00;;
80423;SDS011;69765;47.668;19.326;2023-05-19T06:26:54;9.90;;;5.53;;
80423;SDS011;69765;47.668;19.326;2023-05-19T06:29:59;9.77;;;5.80;;
80423;SDS011;69765;47.668;19.326;2023-05-19T06:33:05;6.90;;;4.75;;
80423;SDS011;69765;47.668;19.326;2023-05-19T06:36:08;6.40;;;4.95;;
80423;SDS011;69765;47.668;19.326;2023-05-19T06:39:13;6.47;;;4.45;;
80423;SDS011;69765;47.668;19.326;2023-05-19T06:42:15;7.18;;;4.68;;
80423;SDS011;69765;47.668;19.326;2023-05-19T06:45:31;6.95;;;4.68;;
80423;SDS011;69765;47.668;19.326;2023-05-19T06:48:36;5.80;;;4.03;;
80423;SDS011;69765;47.668;19.326;2023-05-19T06:51:38;6.03;;;3.60;;
80423;SDS011;69765;47.668;19.326;2023-05-19T06:54:41;5.43;;;3.85;;
80423;SDS011;69765;47.668;19.326;2023-05-19T06:57:44;5.05;;;3.65;;
80423;SDS011;69765;47.668;19.326;2023-05-19T07:00:48;5.18;;;3.38;;
80423;SDS011;69765;47.668;19.326;2023-05-19T07:03:51;5.82;;;4.55;;
80423;SDS011;69765;47.668;19.326;2023-05-19T07:06:55;5.82;;;4.25;;
80423;SDS011;69765;47.668;19.326;2023-05-19T07:09:58;5.55;;;4.22;;
80423;SDS011;69765;47.668;19.326;2023-05-19T07:13:01;5.88;;;4.40;;
80423;SDS011;69765;47.668;19.326;2023-05-19T07:16:07;4.85;;;4.13;;
80423;SDS011;69765;47.668;19.326;2023-05-19T07:19:09;5.88;;;4.65;;
80423;SDS011;69765;47.668;19.326;2023-05-19T07:22:12;5.72;;;3.92;;
80423;SDS011;69765;47.668;19.326;2023-05-19T07:25:14;6.70;;;3.95;;
80423;SDS011;69765;47.668;19.326;2023-05-19T07:28:19;4.72;;;3.97;;
80423;SDS011;69765;47.668;19.326;2023-05-19T07:31:22;4.75;;;3.47;;
80423;SDS011;69765;47.668;19.326;2023-05-19T07:34:25;6.70;;;3.97;;
80423;SDS011;69765;47.668;19.326;2023-05-19T07:37:27;6.18;;;3.60;;
80423;SDS011;69765;47.668;19.326;2023-05-19T07:40:29;5.05;;;3.72;;
80423;SDS011;69765;47.668;19.326;2023-05-19T07:43:32;5.95;;;4.03;;
80423;SDS011;69765;47.668;19.326;2023-05-19T07:46:35;4.00;;;3.30;;
80423;SDS011;69765;47.668;19.326;2023-05-19T07:49:38;3.80;;;3.08;;
80423;SDS011;69765;47.668;19.326;2023-05-19T07:52:41;4.45;;;3.60;;
80423;SDS011;69765;47.668;19.326;2023-05-19T07:55:45;5.57;;;4.00;;
80423;SDS011;69765;47.668;19.326;2023-05-19T07:58:47;6.03;;;3.50;;
80423;SDS011;69765;47.668;19.326;2023-05-19T08:01:50;5.65;;;3.38;;
80423;SDS011;69765;47.668;19.326;2023-05-19T08:04:53;4.28;;;3.53;;
80423;SDS011;69765;47.668;19.326;2023-05-19T08:07:55;5.97;;;3.35;;
80423;SDS011;69765;47.668;19.326;2023-05-19T08:11:01;4.40;;;3.17;;
80423;SDS011;69765;47.668;19.326;2023-05-19T08:14:05;4.95;;;3.63;;
80423;SDS011;69765;47.668;19.326;2023-05-19T08:17:07;6.10;;;3.40;;
80423;SDS011;69765;47.668;19.326;2023-05-19T08:20:09;4.63;;;3.05;;
80423;SDS011;69765;47.668;19.326;2023-05-19T08:23:15;3.25;;;2.92;;
80423;SDS011;69765;47.668;19.326;2023-05-19T08:26:19;5.72;;;3.13;;
80423;SDS011;69765;47.668;19.326;2023-05-19T08:29:22;4.28;;;3.10;;
80423;SDS011;69765;47.668;19.326;2023-05-19T08:32:25;4.70;;;3.28;;
80423;SDS011;69765;47.668;19.326;2023-05-19T08:35:27;4.88;;;3.65;;
80423;SDS011;69765;47.668;19.326;2023-05-19T08:38:29;4.53;;;3.28;;
80423;SDS011;69765;47.668;19.326;2023-05-19T08:41:32;4.93;;;3.55;;
80423;SDS011;69765;47.668;19.326;2023-05-19T08:44:35;3.75;;;3.00;;
80423;SDS011;69765;47.668;19.326;2023-05-19T08:47:41;4.20;;;3.58;;
80423;SDS011;69765;47.668;19.326;2023-05-19T08:50:53;4.50;;;3.40;;
80423;SDS011;69765;47.668;19.326;2023-05-19T08:54:14;3.83;;;2.83;;
80423;SDS011;69765;47.668;19.326;2023-05-19T08:57:19;3.72;;;3.05;;
80423;SDS011;69765;47.668;19.326;2023-05-19T09:00:23;5.22;;;3.42;;
80423;SDS011;69765;47.668;19.326;2023-05-19T09:03:26;5.38;;;3.03;;
80423;SDS011;69765;47.668;19.326;2023-05-19T09:06:31;4.20;;;3.63;;
80423;SDS011;69765;47.668;19.326;2023-05-19T09:09:33;6.50;;;3.45;;
80423;SDS011;69765;47.668;19.326;2023-05-19T09:12:37;3.25;;;2.33;;
80423;SDS011;69765;47.668;19.326;2023-05-19T09:15:39;4.07;;;2.40;;
80423;SDS011;69765;47.668;19.326;2023-05-19T09:18:56;4.57;;;3.00;;
80423;SDS011;69765;47.668;19.326;2023-05-19T09:22:00;4.60;;;2.50;;
80423;SDS011;69765;47.668;19.326;2023-05-19T09:25:16;4.20;;;2.92;;
80423;SDS011;69765;47.668;19.326;2023-05-19T09:28:23;3.60;;;2.45;;
80423;SDS011;69765;47.668;19.326;2023-05-19T09:31:34;4.82;;;2.97;;
80423;SDS011;69765;47.668;19.326;2023-05-19T09:34:39;4.85;;;3.10;;
80423;SDS011;69765;47.668;19.326;2023-05-19T09:37:42;4.93;;;2.95;;
80423;SDS011;69765;47.668;19.326;2023-05-19T09:40:45;4.10;;;2.97;;
80423;SDS011;69765;47.668;19.326;2023-05-19T09:43:53;4.18;;;2.80;;
80423;SDS011;69765;47.668;19.326;2023-05-19T09:46:59;4.30;;;2.60;;
80423;SDS011;69765;47.668;19.326;2023-05-19T09:50:03;3.10;;;2.60;;
80423;SDS011;69765;47.668;19.326;2023-05-19T09:53:06;5.72;;;2.38;;
80423;SDS011;69765;47.668;19.326;2023-05-19T09:56:09;3.42;;;2.53;;
80423;SDS011;69765;47.668;19.326;2023-05-19T09:59:12;3.75;;;2.92;;
80423;SDS011;69765;47.668;19.326;2023-05-19T10:02:17;3.90;;;2.60;;
80423;SDS011;69765;47.668;19.326;2023-05-19T10:05:26;3.95;;;2.83;;
80423;SDS011;69765;47.668;19.326;2023-05-19T10:08:32;4.55;;;2.75;;
80423;SDS011;69765;47.668;19.326;2023-05-19T10:11:36;4.07;;;2.45;;
80423;SDS011;69765;47.668;19.326;2023-05-19T10:14:42;4.30;;;2.35;;
80423;SDS011;69765;47.668;19.326;2023-05-19T10:17:45;3.75;;;2.45;;
80423;SDS011;69765;47.668;19.326;2023-05-19T10:20:48;4.88;;;2.97;;
80423;SDS011;69765;47.668;19.326;2023-05-19T10:23:51;3.67;;;2.47;;
80423;SDS011;69765;47.668;19.326;2023-05-19T10:26:57;3.65;;;2.40;;
80423;SDS011;69765;47.668;19.326;2023-05-19T10:30:08;3.35;;;2.53;;
80423;SDS011;69765;47.668;19.326;2023-05-19T10:33:17;3.85;;;2.60;;
80423;SDS011;69765;47.668;19.326;2023-05-19T10:39:39;3.17;;;2.70;;
80423;SDS011;69765;47.668;19.326;2023-05-19T10:42:44;6.38;;;2.97;;
80423;SDS011;69765;47.668;19.326;2023-05-19T10:46:27;2.75;;;2.42;;
80423;SDS011;69765;47.668;19.326;2023-05-19T10:49:33;2.90;;;2.47;;
80423;SDS011;69765;47.668;19.326;2023-05-19T10:52:37;5.18;;;2.50;;
80423;SDS011;69765;47.668;19.326;2023-05-19T10:56:26;3.10;;;2.70;;
80423;SDS011;69765;47.668;19.326;2023-05-19T10:59:08;3.85;;;2.20;;
80423;SDS011;69765;47.668;19.326;2023-05-19T11:02:35;4.72;;;2.25;;
80423;SDS011;69765;47.668;19.326;2023-05-19T11:05:38;4.03;;;2.67;;
80423;SDS011;69765;47.668;19.326;2023-05-19T11:08:40;3.72;;;2.17;;
80423;SDS011;69765;47.668;19.326;2023-05-19T11:11:44;3.13;;;2.58;;
80423;SDS011;69765;47.668;19.326;2023-05-19T11:14:53;3.47;;;2.72;;
80423;SDS011;69765;47.668;19.326;2023-05-19T11:17:56;6.07;;;2.67;;
80423;SDS011;69765;47.668;19.326;2023-05-19T11:20:59;3.67;;;2.55;;
80423;SDS011;69765;47.668;19.326;2023-05-19T11:24:06;3.70;;;2.45;;
80423;SDS011;69765;47.668;19.326;2023-05-19T11:27:16;2.67;;;2.35;;
80423;SDS011;69765;47.668;19.326;2023-05-19T11:30:32;4.00;;;2.78;;
80423;SDS011;69765;47.668;19.326;2023-05-19T11:33:35;2.83;;;2.40;;
80423;SDS011;69765;47.668;19.326;2023-05-19T11:36:38;2.80;;;2.17;;
80423;SDS011;69765;47.668;19.326;2023-05-19T11:39:42;2.65;;;2.33;;
80423;SDS011;69765;47.668;19.326;2023-05-19T11:42:46;4.90;;;2.35;;
80423;SDS011;69765;47.668;19.326;2023-05-19T11:45:49;3.90;;;2.58;;
80423;SDS011;69765;47.668;19.326;2023-05-19T11:48:52;4.00;;;2.63;;
80423;SDS011;69765;47.668;19.326;2023-05-19T11:51:54;3.53;;;2.60;;
80423;SDS011;69765;47.668;19.326;2023-05-19T11:55:01;4.43;;;2.47;;
80423;SDS011;69765;47.668;19.326;2023-05-19T11:58:08;4.43;;;2.92;;
80423;SDS011;69765;47.668;19.326;2023-05-19T12:01:10;4.97;;;2.83;;
80423;SDS011;69765;47.668;19.326;2023-05-19T12:04:13;3.05;;;2.35;;
80423;SDS011;69765;47.668;19.326;2023-05-19T12:07:16;4.10;;;2.63;;
80423;SDS011;69765;47.668;19.326;2023-05-19T12:10:23;5.45;;;2.53;;
80423;SDS011;69765;47.668;19.326;2023-05-19T12:13:27;3.85;;;2.95;;
80423;SDS011;69765;47.668;19.326;2023-05-19T12:16:33;4.40;;;3.90;;
80423;SDS011;69765;47.668;19.326;2023-05-19T12:19:36;4.13;;;2.20;;
80423;SDS011;69765;47.668;19.326;2023-05-19T12:22:39;5.72;;;2.58;;
80423;SDS011;69765;47.668;19.326;2023-05-19T12:25:41;3.00;;;2.53;;
80423;SDS011;69765;47.668;19.326;2023-05-19T12:28:44;3.00;;;2.10;;
80423;SDS011;69765;47.668;19.326;2023-05-19T12:31:46;4.63;;;3.08;;
80423;SDS011;69765;47.668;19.326;2023-05-19T12:34:50;3.40;;;2.72;;
80423;SDS011;69765;47.668;19.326;2023-05-19T12:37:53;3.80;;;2.42;;
80423;SDS011;69765;47.668;19.326;2023-05-19T12:40:59;4.60;;;2.60;;
80423;SDS011;69765;47.668;19.326;2023-05-19T12:44:11;4.07;;;2.70;;
80423;SDS011;69765;47.668;19.326;2023-05-19T12:47:16;2.88;;;2.55;;
80423;SDS011;69765;47.668;19.326;2023-05-19T12:50:19;3.72;;;2.45;;
80423;SDS011;69765;47.668;19.326;2023-05-19T12:53:24;3.60;;;2.75;;
80423;SDS011;69765;47.668;19.326;2023-05-19T12:56:28;6.38;;;2.92;;
80423;SDS011;69765;47.668;19.326;2023-05-19T12:59:30;10.80;;;2.90;;
80423;SDS011;69765;47.668;19.326;2023-05-19T13:02:59;3.20;;;2.53;;
80423;SDS011;69765;47.668;19.326;2023-05-19T13:06:02;6.47;;;2.80;;
80423;SDS011;69765;47.668;19.326;2023-05-19T13:09:04;3.58;;;2.45;;
80423;SDS011;69765;47.668;19.326;2023-05-19T13:12:08;3.00;;;2.70;;
80423;SDS011;69765;47.668;19.326;2023-05-19T13:15:10;3.35;;;2.75;;
80423;SDS011;69765;47.668;19.326;2023-05-19T13:18:13;3.88;;;2.83;;
80423;SDS011;69765;47.668;19.326;2023-05-19T13:21:23;3.72;;;2.80;;
80423;SDS011;69765;47.668;19.326;2023-05-19T13:24:26;4.63;;;2.78;;
80423;SDS011;69765;47.668;19.326;2023-05-19T13:27:28;3.47;;;2.42;;
80423;SDS011;69765;47.668;19.326;2023-05-19T13:30:31;3.03;;;2.40;;
80423;SDS011;69765;47.668;19.326;2023-05-19T13:33:39;3.55;;;2.90;;
80423;SDS011;69765;47.668;19.326;2023-05-19T13:36:41;6.20;;;2.25;;
80423;SDS011;69765;47.668;19.326;2023-05-19T13:42:52;4.00;;;2.22;;
80423;SDS011;69765;47.668;19.326;2023-05-19T13:45:54;2.40;;;2.05;;
80423;SDS011;69765;47.668;19.326;2023-05-19T13:48:57;2.90;;;2.25;;
80423;SDS011;69765;47.668;19.326;2023-05-19T13:51:59;3.35;;;2.67;;
80423;SDS011;69765;47.668;19.326;2023-05-19T13:55:01;3.63;;;2.55;;
80423;SDS011;69765;47.668;19.326;2023-05-19T13:58:04;24.23;;;3.97;;
80423;SDS011;69765;47.668;19.326;2023-05-19T14:01:07;4.00;;;2.58;;
80423;SDS011;69765;47.668;19.326;2023-05-19T14:04:11;3.80;;;2.60;;
80423;SDS011;69765;47.668;19.326;2023-05-19T14:07:14;5.20;;;2.42;;
80423;SDS011;69765;47.668;19.326;2023-05-19T14:10:17;5.18;;;2.63;;
80423;SDS011;69765;47.668;19.326;2023-05-19T14:13:19;3.60;;;2.72;;
80423;SDS011;69765;47.668;19.326;2023-05-19T14:16:36;5.07;;;2.35;;
80423;SDS011;69765;47.668;19.326;2023-05-19T14:19:39;5.72;;;3.70;;
80423;SDS011;69765;47.668;19.326;2023-05-19T14:22:41;3.95;;;2.60;;
80423;SDS011;69765;47.668;19.326;2023-05-19T14:25:44;4.70;;;2.85;;
80423;SDS011;69765;47.668;19.326;2023-05-19T14:28:46;5.72;;;2.75;;
80423;SDS011;69765;47.668;19.326;2023-05-19T14:31:48;3.25;;;2.42;;
80423;SDS011;69765;47.668;19.326;2023-05-19T14:34:51;4.43;;;2.38;;
80423;SDS011;69765;47.668;19.326;2023-05-19T14:37:53;3.40;;;2.50;;
80423;SDS011;69765;47.668;19.326;2023-05-19T14:40:56;5.15;;;2.70;;
80423;SDS011;69765;47.668;19.326;2023-05-19T14:43:58;4.32;;;2.40;;
80423;SDS011;69765;47.668;19.326;2023-05-19T14:47:01;3.67;;;2.50;;
80423;SDS011;69765;47.668;19.326;2023-05-19T14:50:03;5.40;;;2.30;;
80423;SDS011;69765;47.668;19.326;2023-05-19T14:53:06;4.32;;;2.40;;
80423;SDS011;69765;47.668;19.326;2023-05-19T14:56:08;3.88;;;2.83;;
80423;SDS011;69765;47.668;19.326;2023-05-19T14:59:11;3.38;;;2.75;;
80423;SDS011;69765;47.668;19.326;2023-05-19T15:02:13;4.13;;;2.65;;
80423;SDS011;69765;47.668;19.326;2023-05-19T15:05:15;4.00;;;2.83;;
80423;SDS011;69765;47.668;19.326;2023-05-19T15:08:18;3.80;;;2.83;;
80423;SDS011;69765;47.668;19.326;2023-05-19T15:11:20;4.18;;;2.63;;
80423;SDS011;69765;47.668;19.326;2023-05-19T15:14:23;3.42;;;2.50;;
80423;SDS011;69765;47.668;19.326;2023-05-19T15:17:25;3.25;;;2.88;;
80423;SDS011;69765;47.668;19.326;2023-05-19T15:20:27;3.22;;;2.78;;
80423;SDS011;69765;47.668;19.326;2023-05-19T15:23:30;3.85;;;2.90;;
80423;SDS011;69765;47.668;19.326;2023-05-19T15:26:33;5.57;;;3.20;;
80423;SDS011;69765;47.668;19.326;2023-05-19T15:29:35;4.07;;;2.75;;
80423;SDS011;69765;47.668;19.326;2023-05-19T15:32:37;3.22;;;2.72;;
80423;SDS011;69765;47.668;19.326;2023-05-19T15:35:40;3.42;;;2.75;;
80423;SDS011;69765;47.668;19.326;2023-05-19T15:38:42;3.53;;;2.55;;
80423;SDS011;69765;47.668;19.326;2023-05-19T15:41:45;3.70;;;2.72;;
80423;SDS011;69765;47.668;19.326;2023-05-19T15:44:47;5.82;;;2.78;;
80423;SDS011;69765;47.668;19.326;2023-05-19T15:47:49;4.75;;;3.00;;
80423;SDS011;69765;47.668;19.326;2023-05-19T15:50:52;3.95;;;2.85;;
80423;SDS011;69765;47.668;19.326;2023-05-19T15:53:54;4.95;;;3.03;;
80423;SDS011;69765;47.668;19.326;2023-05-19T15:56:56;3.80;;;3.20;;
80423;SDS011;69765;47.668;19.326;2023-05-19T15:59:59;3.90;;;2.83;;
80423;SDS011;69765;47.668;19.326;2023-05-19T16:03:01;7.70;;;3.05;;
80423;SDS011;69765;47.668;19.326;2023-05-19T16:06:04;4.78;;;2.90;;
80423;SDS011;69765;47.668;19.326;2023-05-19T16:09:06;5.53;;;3.00;;
80423;SDS011;69765;47.668;19.326;2023-05-19T16:12:09;5.13;;;2.78;;
80423;SDS011;69765;47.668;19.326;2023-05-19T16:15:11;3.67;;;2.50;;
80423;SDS011;69765;47.668;19.326;2023-05-19T16:18:13;3.47;;;3.05;;
80423;SDS011;69765;47.668;19.326;2023-05-19T16:21:16;3.70;;;3.30;;
80423;SDS011;69765;47.668;19.326;2023-05-19T16:24:19;5.65;;;3.33;;
80423;SDS011;69765;47.668;19.326;2023-05-19T16:27:21;4.57;;;2.78;;
80423;SDS011;69765;47.668;19.326;2023-05-19T16:30:24;4.03;;;3.22;;
80423;SDS011;69765;47.668;19.326;2023-05-19T16:33:28;3.97;;;3.33;;
80423;SDS011;69765;47.668;19.326;2023-05-19T16:36:31;6.32;;;4.18;;
80423;SDS011;69765;47.668;19.326;2023-05-19T16:39:36;4.45;;;3.63;;
80423;SDS011;69765;47.668;19.326;2023-05-19T16:42:39;4.50;;;3.78;;
80423;SDS011;69765;47.668;19.326;2023-05-19T16:45:41;6.03;;;4.75;;
80423;SDS011;69765;47.668;19.326;2023-05-19T16:48:44;5.00;;;3.70;;
80423;SDS011;69765;47.668;19.326;2023-05-19T16:51:46;6.57;;;2.95;;
80423;SDS011;69765;47.668;19.326;2023-05-19T16:54:49;3.20;;;2.90;;
80423;SDS011;69765;47.668;19.326;2023-05-19T16:57:52;5.53;;;3.65;;
80423;SDS011;69765;47.668;19.326;2023-05-19T17:00:54;5.38;;;3.35;;
80423;SDS011;69765;47.668;19.326;2023-05-19T17:03:58;4.50;;;3.95;;
80423;SDS011;69765;47.668;19.326;2023-05-19T17:07:00;5.07;;;3.80;;
80423;SDS011;69765;47.668;19.326;2023-05-19T17:10:03;4.15;;;3.35;;
80423;SDS011;69765;47.668;19.326;2023-05-19T17:13:06;4.78;;;3.67;;
80423;SDS011;69765;47.668;19.326;2023-05-19T17:16:08;5.50;;;4.43;;
80423;SDS011;69765;47.668;19.326;2023-05-19T17:19:10;4.80;;;3.85;;
80423;SDS011;69765;47.668;19.326;2023-05-19T17:22:13;4.55;;;3.92;;
80423;SDS011;69765;47.668;19.326;2023-05-19T17:25:15;5.50;;;3.63;;
80423;SDS011;69765;47.668;19.326;2023-05-19T17:28:18;6.65;;;3.80;;
80423;SDS011;69765;47.668;19.326;2023-05-19T17:31:20;7.82;;;4.15;;
80423;SDS011;69765;47.668;19.326;2023-05-19T17:34:22;5.80;;;4.15;;
80423;SDS011;69765;47.668;19.326;2023-05-19T17:37:25;5.53;;;4.10;;
80423;SDS011;69765;47.668;19.326;2023-05-19T17:40:27;5.28;;;4.07;;
80423;SDS011;69765;47.668;19.326;2023-05-19T17:43:29;5.45;;;3.97;;
80423;SDS011;69765;47.668;19.326;2023-05-19T17:46:32;5.18;;;3.95;;
80423;SDS011;69765;47.668;19.326;2023-05-19T17:49:36;4.78;;;3.50;;
80423;SDS011;69765;47.668;19.326;2023-05-19T17:52:41;4.82;;;3.63;;
80423;SDS011;69765;47.668;19.326;2023-05-19T17:55:45;5.88;;;3.92;;
80423;SDS011;69765;47.668;19.326;2023-05-19T17:58:54;6.60;;;3.85;;
80423;SDS011;69765;47.668;19.326;2023-05-19T18:01:57;7.18;;;5.13;;
80423;SDS011;69765;47.668;19.326;2023-05-19T18:04:59;5.28;;;4.35;;
80423;SDS011;69765;47.668;19.326;2023-05-19T18:08:03;6.90;;;4.65;;
80423;SDS011;69765;47.668;19.326;2023-05-19T18:11:08;5.75;;;3.92;;
80423;SDS011;69765;47.668;19.326;2023-05-19T18:14:14;6.90;;;4.55;;
80423;SDS011;69765;47.668;19.326;2023-05-19T18:17:16;5.57;;;4.28;;
80423;SDS011;69765;47.668;19.326;2023-05-19T18:20:19;6.80;;;4.82;;
80423;SDS011;69765;47.668;19.326;2023-05-19T18:23:21;9.93;;;5.50;;
80423;SDS011;69765;47.668;19.326;2023-05-19T18:26:23;6.45;;;4.72;;
80423;SDS011;69765;47.668;19.326;2023-05-19T18:29:25;6.25;;;4.85;;
80423;SDS011;69765;47.668;19.326;2023-05-19T18:32:32;5.60;;;4.65;;